Time;durP1;ratioP1;P1;durP2;ratioP2;P2;SDS_P1;SDS_P2;PMS_P1;PMS_P2;Temp;Humidity;BMP_temperature;BMP_pressure;BME280_temperature;BME280_humidity;BME280_pressure;Samples;Min_cycle;Max_cycle;Signal;HPM_P1;HPM_P2
2023/07/05 00:00:25;;;;;;;4.07;1.58;;;;;;;;;;5025173;28;20033;-71
2023/07/05 00:02:52;;;;;;;3.55;1.60;;;;;;;;;;5026334;28;20033;-71
2023/07/05 00:05:17;;;;;;;3.45;1.70;;;;;;;;;;5036495;28;20061;-71
2023/07/05 00:07:42;;;;;;;2.20;1.70;;;;;;;;;;5026386;28;20038;-71
2023/07/05 00:10:08;;;;;;;2.88;1.83;;;;;;;;;;5026478;28;20109;-71
2023/07/05 00:12:33;;;;;;;3.83;1.77;;;;;;;;;;5041236;28;20024;-71
2023/07/05 00:14:59;;;;;;;4.35;2.13;;;;;;;;;;5036553;28;20059;-71
2023/07/05 00:17:24;;;;;;;3.15;1.85;;;;;;;;;;5039498;28;20034;-71
2023/07/05 00:19:51;;;;;;;7.05;1.95;;;;;;;;;;5033124;28;20042;-71
2023/07/05 00:22:16;;;;;;;4.25;2.00;;;;;;;;;;5027590;28;20033;-71
2023/07/05 00:24:41;;;;;;;4.60;2.40;;;;;;;;;;5026552;28;20025;-71
2023/07/05 00:27:07;;;;;;;5.68;2.35;;;;;;;;;;5057760;28;20048;-71
2023/07/05 00:29:32;;;;;;;4.15;2.00;;;;;;;;;;5025389;28;20038;-71
2023/07/05 00:31:57;;;;;;;3.10;1.85;;;;;;;;;;5024003;28;20105;-71
2023/07/05 00:34:23;;;;;;;3.33;2.03;;;;;;;;;;5024287;28;20033;-71
2023/07/05 00:36:48;;;;;;;4.55;1.92;;;;;;;;;;5025351;28;20028;-71
2023/07/05 00:39:13;;;;;;;3.58;1.92;;;;;;;;;;5025757;28;20592;-71
2023/07/05 00:41:39;;;;;;;6.63;2.40;;;;;;;;;;5025079;28;20037;-71
2023/07/05 00:44:04;;;;;;;4.35;1.90;;;;;;;;;;5025373;28;20049;-71
2023/07/05 00:46:33;;;;;;;4.00;2.00;;;;;;;;;;5025068;28;20041;-71
2023/07/05 00:49:05;;;;;;;4.32;2.30;;;;;;;;;;5023815;28;20022;-71
2023/07/05 00:51:40;;;;;;;4.97;2.30;;;;;;;;;;5025393;28;20078;-71
2023/07/05 00:54:06;;;;;;;5.68;2.15;;;;;;;;;;5025269;28;20037;-71
2023/07/05 00:56:40;;;;;;;5.03;1.95;;;;;;;;;;5024782;28;20037;-71
2023/07/05 00:59:08;;;;;;;5.30;2.45;;;;;;;;;;5025048;28;20431;-71
2023/07/05 01:01:34;;;;;;;4.50;2.45;;;;;;;;;;5012311;28;20069;-71
2023/07/05 01:03:59;;;;;;;5.95;2.10;;;;;;;;;;5024910;28;20061;-71
2023/07/05 01:06:25;;;;;;;9.18;2.50;;;;;;;;;;5023668;28;20049;-71
2023/07/05 01:08:51;;;;;;;5.88;2.67;;;;;;;;;;5025139;28;20132;-71
2023/07/05 01:11:33;;;;;;;6.72;2.50;;;;;;;;;;5024828;28;20581;-71
2023/07/05 01:14:13;;;;;;;4.10;2.35;;;;;;;;;;5024586;28;20079;-71
2023/07/05 01:17:03;;;;;;;5.10;2.42;;;;;;;;;;5047140;28;20522;-71
2023/07/05 01:19:31;;;;;;;5.40;2.20;;;;;;;;;;5022621;28;20518;-71
2023/07/05 01:22:03;;;;;;;4.78;2.25;;;;;;;;;;5024139;28;20033;-71
2023/07/05 01:25:01;;;;;;;5.90;2.50;;;;;;;;;;5011093;28;20025;-71
2023/07/05 01:27:32;;;;;;;8.48;2.30;;;;;;;;;;5046717;28;20046;-71
2023/07/05 01:30:28;;;;;;;6.05;2.42;;;;;;;;;;5024743;28;20038;-71
2023/07/05 01:33:03;;;;;;;7.13;2.35;;;;;;;;;;5024749;28;20041;-71
2023/07/05 01:35:44;;;;;;;5.90;2.60;;;;;;;;;;5025352;28;20034;-71
2023/07/05 01:38:10;;;;;;;8.07;2.88;;;;;;;;;;5025345;28;20037;-71
2023/07/05 01:40:35;;;;;;;4.30;2.45;;;;;;;;;;5032387;28;20041;-71
2023/07/05 01:43:10;;;;;;;6.00;2.90;;;;;;;;;;5035340;28;20045;-71
2023/07/05 01:46:23;;;;;;;9.23;2.88;;;;;;;;;;5026366;28;20036;-71
2023/07/05 01:48:58;;;;;;;9.25;2.95;;;;;;;;;;4998306;28;20049;-71
2023/07/05 01:51:40;;;;;;;6.43;3.10;;;;;;;;;;5018582;28;20041;-71
2023/07/05 01:54:15;;;;;;;7.55;2.90;;;;;;;;;;5024190;28;20034;-71
2023/07/05 01:56:52;;;;;;;4.95;2.90;;;;;;;;;;5024349;28;20053;-71
2023/07/05 01:59:22;;;;;;;7.65;3.13;;;;;;;;;;5012502;28;20044;-71
2023/07/05 02:01:49;;;;;;;5.30;2.40;;;;;;;;;;5024057;28;20060;-71
2023/07/05 02:04:15;;;;;;;7.43;3.40;;;;;;;;;;5024509;28;20029;-70
2023/07/05 02:06:42;;;;;;;7.82;3.35;;;;;;;;;;5024354;28;20047;-71
2023/07/05 02:09:07;;;;;;;6.75;3.20;;;;;;;;;;5027740;28;20041;-71
2023/07/05 02:11:33;;;;;;;9.55;3.65;;;;;;;;;;5032768;28;20037;-71
2023/07/05 02:13:58;;;;;;;8.90;3.35;;;;;;;;;;5034728;28;20030;-71
2023/07/05 02:16:24;;;;;;;7.72;3.47;;;;;;;;;;5026654;28;20041;-71
2023/07/05 02:18:49;;;;;;;6.05;3.03;;;;;;;;;;5027508;28;20029;-71
2023/07/05 02:21:15;;;;;;;6.90;3.58;;;;;;;;;;5028283;28;20025;-71
2023/07/05 02:23:40;;;;;;;6.68;3.38;;;;;;;;;;5028247;28;20037;-70
2023/07/05 02:26:06;;;;;;;6.95;3.08;;;;;;;;;;5039860;28;20036;-71
2023/07/05 02:28:33;;;;;;;8.57;3.50;;;;;;;;;;5029076;28;20042;-71
2023/07/05 02:31:03;;;;;;;10.60;3.88;;;;;;;;;;5012098;28;20049;-71
2023/07/05 02:33:29;;;;;;;7.95;3.70;;;;;;;;;;5027591;28;20017;-71
2023/07/05 02:35:54;;;;;;;8.75;3.70;;;;;;;;;;5027793;28;20040;-70
2023/07/05 02:38:20;;;;;;;10.48;5.07;;;;;;;;;;5027083;28;20120;-71
2023/07/05 02:40:48;;;;;;;8.77;4.05;;;;;;;;;;5027078;28;20125;-71
2023/07/05 02:43:14;;;;;;;8.38;3.88;;;;;;;;;;5027295;28;20503;-71
2023/07/05 02:45:40;;;;;;;10.98;4.55;;;;;;;;;;5026508;28;20032;-70
2023/07/05 02:48:05;;;;;;;8.85;4.00;;;;;;;;;;5059118;28;20026;-71
2023/07/05 02:50:30;;;;;;;7.70;4.00;;;;;;;;;;5027083;28;20037;-71
2023/07/05 02:52:56;;;;;;;12.90;4.40;;;;;;;;;;5027527;28;20124;-71
2023/07/05 02:55:21;;;;;;;6.63;3.30;;;;;;;;;;5027086;28;20896;-71
2023/07/05 02:57:46;;;;;;;9.13;4.10;;;;;;;;;;5027276;28;20029;-71
2023/07/05 03:00:12;;;;;;;7.93;3.80;;;;;;;;;;5028337;28;20013;-71
2023/07/05 03:02:37;;;;;;;7.45;3.63;;;;;;;;;;5028895;28;20037;-71
2023/07/05 03:05:09;;;;;;;9.30;4.05;;;;;;;;;;5032445;28;20429;-71
2023/07/05 03:07:36;;;;;;;8.60;3.58;;;;;;;;;;5040797;28;20045;-70
2023/07/05 03:10:02;;;;;;;8.35;4.05;;;;;;;;;;5039461;28;20552;-71
2023/07/05 03:12:27;;;;;;;16.27;4.00;;;;;;;;;;5043632;28;20051;-70
2023/07/05 03:14:53;;;;;;;10.98;3.72;;;;;;;;;;5027845;28;20124;-70
2023/07/05 03:17:18;;;;;;;8.13;3.28;;;;;;;;;;5025863;28;20053;-70
2023/07/05 03:19:44;;;;;;;7.97;3.72;;;;;;;;;;5025167;28;20059;-70
2023/07/05 03:22:09;;;;;;;9.55;3.65;;;;;;;;;;5025668;28;20525;-70
2023/07/05 03:24:34;;;;;;;9.50;3.85;;;;;;;;;;5027033;28;20053;-71
2023/07/05 03:27:00;;;;;;;15.10;3.88;;;;;;;;;;5039780;28;20037;-70
2023/07/05 03:29:25;;;;;;;6.63;3.20;;;;;;;;;;5022735;28;20029;-70
2023/07/05 03:31:50;;;;;;;5.28;2.72;;;;;;;;;;5025758;28;20033;-70
2023/07/05 03:34:16;;;;;;;7.30;2.92;;;;;;;;;;5025360;28;20025;-70
2023/07/05 03:36:41;;;;;;;6.85;3.20;;;;;;;;;;5026837;28;20025;-70
2023/07/05 03:39:06;;;;;;;8.73;2.92;;;;;;;;;;5026386;28;20041;-70
2023/07/05 03:41:32;;;;;;;8.35;2.53;;;;;;;;;;5024770;28;20064;-70
2023/07/05 03:44:00;;;;;;;7.65;2.85;;;;;;;;;;5026375;28;20037;-70
2023/07/05 03:46:26;;;;;;;4.68;2.28;;;;;;;;;;5024550;28;20040;-70
2023/07/05 03:48:52;;;;;;;7.18;2.40;;;;;;;;;;5020518;28;20060;-71
2023/07/05 03:51:19;;;;;;;8.88;2.00;;;;;;;;;;5026178;28;20053;-70
2023/07/05 03:53:53;;;;;;;5.65;2.30;;;;;;;;;;5026083;28;20427;-70
2023/07/05 03:56:19;;;;;;;6.20;2.10;;;;;;;;;;5025934;28;20033;-70
2023/07/05 03:58:45;;;;;;;5.53;2.20;;;;;;;;;;5024123;28;20036;-70
2023/07/05 04:01:15;;;;;;;6.07;2.13;;;;;;;;;;5026090;28;20036;-70
2023/07/05 04:03:45;;;;;;;7.22;1.77;;;;;;;;;;5025951;28;20048;-70
2023/07/05 04:06:11;;;;;;;6.10;1.73;;;;;;;;;;5025731;28;20057;-70
2023/07/05 04:08:36;;;;;;;4.68;1.95;;;;;;;;;;5026116;28;20042;-70
2023/07/05 04:11:02;;;;;;;6.50;1.70;;;;;;;;;;5027763;28;20029;-70
2023/07/05 04:13:27;;;;;;;5.68;2.05;;;;;;;;;;5036883;28;20030;-70
2023/07/05 04:16:10;;;;;;;5.00;1.77;;;;;;;;;;5025711;28;20525;-70
2023/07/05 04:18:37;;;;;;;6.22;1.90;;;;;;;;;;5019416;28;20402;-70
2023/07/05 04:21:02;;;;;;;5.63;1.73;;;;;;;;;;5025638;28;20037;-70
2023/07/05 04:23:28;;;;;;;5.00;1.73;;;;;;;;;;5025839;28;20111;-70
2023/07/05 04:26:07;;;;;;;7.70;2.03;;;;;;;;;;5036067;28;20040;-70
2023/07/05 04:28:34;;;;;;;6.15;1.40;;;;;;;;;;5028419;28;20139;-70
2023/07/05 04:31:00;;;;;;;5.97;1.80;;;;;;;;;;5029518;28;20036;-70
2023/07/05 04:33:26;;;;;;;11.55;1.80;;;;;;;;;;5038503;28;20029;-70
2023/07/05 04:35:55;;;;;;;5.85;1.67;;;;;;;;;;5031975;28;20136;-70
2023/07/05 04:38:20;;;;;;;7.78;1.60;;;;;;;;;;5012684;28;20037;-70
2023/07/05 04:40:46;;;;;;;4.07;1.90;;;;;;;;;;5025164;28;20048;-70
2023/07/05 04:43:11;;;;;;;7.53;2.05;;;;;;;;;;5025475;28;20115;-70
2023/07/05 04:45:37;;;;;;;6.63;1.80;;;;;;;;;;5024178;28;20029;-70
2023/07/05 04:48:02;;;;;;;5.88;1.73;;;;;;;;;;5025633;28;20037;-70
2023/07/05 04:50:27;;;;;;;10.00;1.98;;;;;;;;;;5025010;28;20029;-70
2023/07/05 04:52:54;;;;;;;4.32;1.52;;;;;;;;;;5024998;28;20148;-71
2023/07/05 04:55:20;;;;;;;3.78;1.58;;;;;;;;;;5023563;28;20099;-70
2023/07/05 04:57:45;;;;;;;5.25;1.80;;;;;;;;;;5025041;28;20033;-70
2023/07/05 05:00:11;;;;;;;3.55;1.67;;;;;;;;;;5025441;28;20059;-70
2023/07/05 05:02:37;;;;;;;4.45;1.50;;;;;;;;;;5025024;28;20389;-70
2023/07/05 05:05:04;;;;;;;4.55;1.58;;;;;;;;;;5023295;28;20053;-71
2023/07/05 05:07:29;;;;;;;4.72;1.48;;;;;;;;;;5025111;28;20109;-70
2023/07/05 05:09:56;;;;;;;5.35;1.73;;;;;;;;;;5057327;28;20124;-70
2023/07/05 05:12:22;;;;;;;5.47;1.45;;;;;;;;;;5025524;28;20419;-70
2023/07/05 05:14:47;;;;;;;3.95;1.48;;;;;;;;;;5022604;28;20041;-70
2023/07/05 05:17:12;;;;;;;4.60;1.63;;;;;;;;;;5024894;28;20415;-70
2023/07/05 05:19:38;;;;;;;2.95;1.38;;;;;;;;;;5024550;28;20033;-70
2023/07/05 05:22:03;;;;;;;4.55;1.88;;;;;;;;;;5024461;28;20037;-70
2023/07/05 05:24:28;;;;;;;8.35;1.67;;;;;;;;;;5025062;28;20056;-70
2023/07/05 05:26:54;;;;;;;4.47;1.75;;;;;;;;;;5037868;28;20049;-70
2023/07/05 05:29:19;;;;;;;6.55;1.85;;;;;;;;;;5024782;28;20034;-70
2023/07/05 05:31:45;;;;;;;4.57;1.60;;;;;;;;;;5056169;28;20455;-70
2023/07/05 05:34:10;;;;;;;4.75;1.73;;;;;;;;;;5024505;28;20030;-70
2023/07/05 05:36:35;;;;;;;2.88;1.60;;;;;;;;;;5024947;28;20086;-70
2023/07/05 05:39:01;;;;;;;2.20;1.60;;;;;;;;;;5024982;28;20115;-70
2023/07/05 05:41:26;;;;;;;3.30;1.67;;;;;;;;;;5025198;28;20111;-70
2023/07/05 05:43:51;;;;;;;4.40;1.65;;;;;;;;;;5028692;28;20069;-70
2023/07/05 05:46:17;;;;;;;3.63;1.80;;;;;;;;;;5028446;28;20072;-70
2023/07/05 05:48:42;;;;;;;3.20;1.65;;;;;;;;;;5028455;28;20037;-70
2023/07/05 05:51:08;;;;;;;7.10;2.20;;;;;;;;;;5028978;28;20104;-70
2023/07/05 05:53:33;;;;;;;6.93;2.03;;;;;;;;;;5029621;28;20095;-70
2023/07/05 05:55:59;;;;;;;4.63;1.90;;;;;;;;;;5032245;28;20038;-70
2023/07/05 05:58:24;;;;;;;3.88;1.70;;;;;;;;;;5042442;28;20376;-70
2023/07/05 06:00:50;;;;;;;5.53;1.75;;;;;;;;;;5042113;28;20025;-71
2023/07/05 06:03:15;;;;;;;5.90;2.30;;;;;;;;;;5031972;28;20461;-70
2023/07/05 06:05:41;;;;;;;3.78;2.00;;;;;;;;;;5029085;28;20053;-70
2023/07/05 06:08:07;;;;;;;5.72;2.00;;;;;;;;;;5028518;28;20029;-71
2023/07/05 06:10:33;;;;;;;5.38;1.95;;;;;;;;;;5028420;28;20038;-70
2023/07/05 06:12:58;;;;;;;7.47;2.05;;;;;;;;;;5040375;28;20388;-70
2023/07/05 06:15:23;;;;;;;6.20;1.75;;;;;;;;;;5028342;28;20067;-70
2023/07/05 06:17:49;;;;;;;3.53;1.80;;;;;;;;;;5027720;28;20037;-71
2023/07/05 06:20:14;;;;;;;8.98;1.95;;;;;;;;;;5026913;28;20034;-71
2023/07/05 06:22:40;;;;;;;4.22;2.28;;;;;;;;;;5026238;28;20033;-70
2023/07/05 06:25:06;;;;;;;6.07;2.03;;;;;;;;;;5031271;28;20035;-70
2023/07/05 06:27:32;;;;;;;4.93;2.10;;;;;;;;;;5037522;28;20106;-70
2023/07/05 06:29:57;;;;;;;5.57;2.25;;;;;;;;;;5013473;28;20654;-70
2023/07/05 06:32:23;;;;;;;5.65;2.42;;;;;;;;;;5018480;28;20033;-71
2023/07/05 06:34:48;;;;;;;5.85;2.22;;;;;;;;;;5016345;28;20105;-71
2023/07/05 06:37:15;;;;;;;6.18;2.05;;;;;;;;;;5022327;28;20629;-70
2023/07/05 06:39:41;;;;;;;5.00;2.20;;;;;;;;;;5020451;28;20045;-69
2023/07/05 06:42:06;;;;;;;7.00;2.58;;;;;;;;;;5026364;28;20041;-70
2023/07/05 06:44:31;;;;;;;5.57;1.98;;;;;;;;;;5027105;28;20045;-69
2023/07/05 06:46:57;;;;;;;8.88;2.05;;;;;;;;;;5023851;28;20056;-70
2023/07/05 06:49:22;;;;;;;9.43;2.13;;;;;;;;;;5021966;28;20044;-69
2023/07/05 06:51:48;;;;;;;6.60;1.75;;;;;;;;;;5020068;28;20037;-70
2023/07/05 06:54:13;;;;;;;5.75;2.08;;;;;;;;;;5026296;28;20017;-69
2023/07/05 06:56:38;;;;;;;7.50;2.00;;;;;;;;;;5027535;28;20061;-69
2023/07/05 06:59:04;;;;;;;8.63;2.67;;;;;;;;;;5018999;28;20550;-69
2023/07/05 07:01:29;;;;;;;9.05;2.30;;;;;;;;;;5012671;28;20033;-69
2023/07/05 07:03:54;;;;;;;4.80;2.08;;;;;;;;;;5021362;28;20026;-70
2023/07/05 07:06:20;;;;;;;9.68;2.40;;;;;;;;;;5026286;28;20107;-69
2023/07/05 07:08:45;;;;;;;5.15;2.10;;;;;;;;;;5026483;28;20068;-71
2023/07/05 07:11:12;;;;;;;5.20;2.00;;;;;;;;;;5029072;28;20558;-69
2023/07/05 07:13:37;;;;;;;8.23;2.17;;;;;;;;;;5036866;28;20124;-69
2023/07/05 07:16:09;;;;;;;8.65;4.75;;;;;;;;;;5022991;28;20124;-69
2023/07/05 07:18:37;;;;;;;6.05;2.83;;;;;;;;;;5027517;28;20037;-69
2023/07/05 07:21:05;;;;;;;3.88;2.05;;;;;;;;;;5021274;28;20045;-69
2023/07/05 07:23:31;;;;;;;13.85;2.10;;;;;;;;;;5034863;28;20045;-69
2023/07/05 07:26:01;;;;;;;7.75;1.90;;;;;;;;;;5027352;28;20768;-69
2023/07/05 07:28:26;;;;;;;7.70;2.67;;;;;;;;;;5024306;28;20033;-69
2023/07/05 07:30:52;;;;;;;5.43;1.70;;;;;;;;;;5025663;28;20033;-69
2023/07/05 07:33:18;;;;;;;5.38;2.20;;;;;;;;;;5027069;28;20036;-69
2023/07/05 07:35:43;;;;;;;4.07;2.13;;;;;;;;;;5055368;28;20514;-69
2023/07/05 07:38:08;;;;;;;8.50;2.10;;;;;;;;;;5026079;28;20038;-69
2023/07/05 07:40:37;;;;;;;6.85;1.90;;;;;;;;;;5023703;28;20124;-69
2023/07/05 07:43:06;;;;;;;5.22;2.20;;;;;;;;;;5026153;28;20037;-69
2023/07/05 07:45:32;;;;;;;7.80;2.25;;;;;;;;;;5015553;28;20055;-71
2023/07/05 07:47:58;;;;;;;10.70;2.15;;;;;;;;;;5024151;28;20886;-71
2023/07/05 07:50:24;;;;;;;7.68;2.55;;;;;;;;;;5022319;28;20703;-71
2023/07/05 07:52:49;;;;;;;10.02;2.30;;;;;;;;;;5034100;28;20040;-71
2023/07/05 07:55:14;;;;;;;12.15;2.35;;;;;;;;;;5035165;28;20029;-71
2023/07/05 07:57:41;;;;;;;6.93;1.90;;;;;;;;;;5015854;28;20131;-71
2023/07/05 08:00:09;;;;;;;7.68;2.10;;;;;;;;;;5019337;28;20033;-71
2023/07/05 08:02:35;;;;;;;8.05;2.00;;;;;;;;;;5023699;28;20033;-69
2023/07/05 08:05:00;;;;;;;11.25;2.13;;;;;;;;;;5016629;28;20120;-68
2023/07/05 08:07:26;;;;;;;6.07;2.17;;;;;;;;;;5015312;28;20064;-70
2023/07/05 08:09:54;;;;;;;4.60;2.05;;;;;;;;;;5007736;28;20038;-70
2023/07/05 08:12:20;;;;;;;8.35;2.42;;;;;;;;;;5039297;28;20483;-70
2023/07/05 08:14:45;;;;;;;4.93;2.08;;;;;;;;;;5022838;28;20088;-70
2023/07/05 08:17:10;;;;;;;4.35;1.80;;;;;;;;;;5020778;28;20037;-70
2023/07/05 08:19:36;;;;;;;8.25;2.25;;;;;;;;;;5016883;28;20121;-70
2023/07/05 08:22:02;;;;;;;7.97;2.30;;;;;;;;;;5018448;28;20044;-70
2023/07/05 08:24:28;;;;;;;4.55;1.90;;;;;;;;;;5019857;28;20502;-70
2023/07/05 08:26:54;;;;;;;5.30;1.98;;;;;;;;;;5023614;28;20041;-70
2023/07/05 08:29:20;;;;;;;8.57;2.17;;;;;;;;;;5024261;28;20110;-70
2023/07/05 08:31:46;;;;;;;11.70;2.50;;;;;;;;;;5015050;28;20038;-70
2023/07/05 08:34:12;;;;;;;6.72;2.38;;;;;;;;;;5017274;28;20037;-70
2023/07/05 08:36:39;;;;;;;6.40;2.13;;;;;;;;;;5018734;28;20499;-70
2023/07/05 08:39:07;;;;;;;9.10;2.35;;;;;;;;;;5024534;28;20095;-70
2023/07/05 08:41:41;;;;;;;5.82;1.85;;;;;;;;;;5012883;28;20149;-70
2023/07/05 08:44:09;;;;;;;5.03;1.80;;;;;;;;;;5026461;28;20037;-70
2023/07/05 08:46:38;;;;;;;5.53;1.75;;;;;;;;;;5029525;28;20041;-70
2023/07/05 08:49:15;;;;;;;9.38;2.00;;;;;;;;;;5032179;28;20034;-70
2023/07/05 08:51:43;;;;;;;5.55;2.13;;;;;;;;;;5026942;28;20065;-70
2023/07/05 08:54:11;;;;;;;10.70;2.17;;;;;;;;;;5016636;28;20054;-70
2023/07/05 08:56:44;;;;;;;5.93;2.17;;;;;;;;;;5010445;28;20041;-70
2023/07/05 08:59:09;;;;;;;7.37;2.30;;;;;;;;;;5020246;28;20072;-70
2023/07/05 09:01:39;;;;;;;9.20;2.50;;;;;;;;;;5011647;28;20416;-68
2023/07/05 09:04:11;;;;;;;4.05;2.30;;;;;;;;;;5017779;28;20037;-68
2023/07/05 09:06:54;;;;;;;5.90;2.15;;;;;;;;;;5010775;28;20586;-69
2023/07/05 09:10:04;;;;;;;10.88;2.90;;;;;;;;;;5010385;28;20126;-68
2023/07/05 09:12:52;;;;;;;8.00;2.05;;;;;;;;;;5006405;28;20483;-69
2023/07/05 09:15:23;;;;;;;6.45;2.10;;;;;;;;;;5025116;28;20818;-68
2023/07/05 09:18:31;;;;;;;5.63;2.45;;;;;;;;;;5022201;28;20048;-69
2023/07/05 09:21:28;;;;;;;7.10;2.55;;;;;;;;;;5020461;28;20045;-68
2023/07/05 09:24:01;;;;;;;4.60;1.73;;;;;;;;;;5026261;28;20038;-68
2023/07/05 09:26:33;;;;;;;6.03;2.70;;;;;;;;;;5023507;28;20042;-69
2023/07/05 09:29:13;;;;;;;3.90;1.98;;;;;;;;;;5024919;28;20465;-68
2023/07/05 09:31:38;;;;;;;6.20;2.30;;;;;;;;;;5024908;28;20039;-68
2023/07/05 09:34:17;;;;;;;5.55;2.30;;;;;;;;;;5024578;28;20399;-69
2023/07/05 09:36:44;;;;;;;10.75;2.67;;;;;;;;;;5023443;28;20029;-68
2023/07/05 09:39:36;;;;;;;4.95;2.15;;;;;;;;;;5024980;28;20038;-68
2023/07/05 09:42:06;;;;;;;12.00;2.35;;;;;;;;;;5024920;28;20068;-68
2023/07/05 09:44:31;;;;;;;5.25;1.77;;;;;;;;;;5024722;28;20128;-69
2023/07/05 09:46:57;;;;;;;6.18;2.33;;;;;;;;;;5024762;28;20125;-69
2023/07/05 09:49:22;;;;;;;6.47;2.78;;;;;;;;;;5024429;28;20450;-68
2023/07/05 09:51:49;;;;;;;5.70;2.67;;;;;;;;;;5024457;28;20033;-68
2023/07/05 09:54:29;;;;;;;6.20;2.30;;;;;;;;;;5032397;28;20048;-68
2023/07/05 09:57:22;;;;;;;5.45;2.22;;;;;;;;;;5011802;28;20462;-68
2023/07/05 09:59:47;;;;;;;3.97;2.10;;;;;;;;;;5024485;28;20052;-68
2023/07/05 10:02:20;;;;;;;6.22;2.78;;;;;;;;;;5035908;28;20033;-68
2023/07/05 10:04:51;;;;;;;5.18;2.13;;;;;;;;;;5024761;28;20033;-68
2023/07/05 10:07:23;;;;;;;6.07;1.98;;;;;;;;;;5023500;28;20034;-69
2023/07/05 10:10:05;;;;;;;7.43;2.42;;;;;;;;;;5030003;28;20078;-69
2023/07/05 10:12:42;;;;;;;4.95;1.92;;;;;;;;;;5048791;28;20059;-69
2023/07/05 10:15:22;;;;;;;4.57;2.35;;;;;;;;;;5032052;28;20037;-69
2023/07/05 10:17:51;;;;;;;5.22;2.00;;;;;;;;;;5020923;28;20033;-69
2023/07/05 10:20:21;;;;;;;5.20;2.08;;;;;;;;;;5023684;28;20057;-68
2023/07/05 10:22:47;;;;;;;9.57;2.15;;;;;;;;;;5023794;28;20041;-69
2023/07/05 10:25:18;;;;;;;5.53;1.90;;;;;;;;;;5024110;28;20035;-68
2023/07/05 10:27:48;;;;;;;4.68;1.90;;;;;;;;;;5040988;28;20024;-68
2023/07/05 10:30:19;;;;;;;4.43;2.50;;;;;;;;;;5029938;28;20024;-69
2023/07/05 10:33:06;;;;;;;3.33;1.90;;;;;;;;;;5028267;28;20030;-68
2023/07/05 10:35:33;;;;;;;5.13;2.30;;;;;;;;;;5016249;28;20060;-68
2023/07/05 10:37:59;;;;;;;6.47;2.60;;;;;;;;;;5025994;28;20347;-68
2023/07/05 10:40:25;;;;;;;5.57;2.80;;;;;;;;;;5026305;28;20029;-68
2023/07/05 10:42:53;;;;;;;6.18;2.10;;;;;;;;;;5026369;28;20026;-68
2023/07/05 10:45:21;;;;;;;7.78;2.30;;;;;;;;;;5025981;28;20064;-68
2023/07/05 10:47:51;;;;;;;6.28;2.03;;;;;;;;;;5026911;28;20057;-68
2023/07/05 10:50:29;;;;;;;5.75;2.35;;;;;;;;;;5025530;28;20572;-68
2023/07/05 10:53:10;;;;;;;5.40;2.40;;;;;;;;;;5013324;28;20129;-68
2023/07/05 10:55:55;;;;;;;4.32;2.50;;;;;;;;;;5026351;28;20708;-68
2023/07/05 10:58:23;;;;;;;4.55;2.00;;;;;;;;;;5026595;28;20083;-68
2023/07/05 11:01:01;;;;;;;5.05;2.20;;;;;;;;;;5027841;28;20055;-68
2023/07/05 11:03:41;;;;;;;6.53;2.50;;;;;;;;;;5067844;28;20033;-68
2023/07/05 11:06:09;;;;;;;6.82;2.40;;;;;;;;;;5021117;28;20049;-68
2023/07/05 11:08:38;;;;;;;4.13;2.33;;;;;;;;;;5016916;28;20033;-68
2023/07/05 11:11:11;;;;;;;6.63;2.53;;;;;;;;;;5017480;28;20026;-68
2023/07/05 11:13:36;;;;;;;6.07;2.30;;;;;;;;;;5024975;28;20069;-68
2023/07/05 11:16:03;;;;;;;5.55;2.33;;;;;;;;;;5025888;28;20057;-68
2023/07/05 11:18:29;;;;;;;5.00;2.33;;;;;;;;;;5026217;28;20104;-68
2023/07/05 11:20:56;;;;;;;7.57;2.40;;;;;;;;;;5024648;28;20104;-67
2023/07/05 11:23:43;;;;;;;5.47;2.20;;;;;;;;;;5021906;28;20044;-68
2023/07/05 11:26:28;;;;;;;4.68;2.25;;;;;;;;;;5016563;28;20033;-68
2023/07/05 11:28:53;;;;;;;4.90;2.55;;;;;;;;;;5026324;28;20048;-69
2023/07/05 11:31:28;;;;;;;4.47;2.42;;;;;;;;;;5025076;28;20124;-69
2023/07/05 11:34:21;;;;;;;6.32;2.75;;;;;;;;;;5027719;28;20025;-70
2023/07/05 11:36:50;;;;;;;4.35;2.13;;;;;;;;;;5022392;28;20014;-69
2023/07/05 11:39:32;;;;;;;3.85;2.38;;;;;;;;;;5037654;28;20052;-70
2023/07/05 11:42:19;;;;;;;6.70;2.70;;;;;;;;;;5033447;28;20465;-70
2023/07/05 11:45:03;;;;;;;6.72;2.30;;;;;;;;;;5025853;28;20581;-69
2023/07/05 11:47:34;;;;;;;4.53;1.83;;;;;;;;;;5026146;28;20065;-69
2023/07/05 11:50:07;;;;;;;3.65;2.42;;;;;;;;;;5020088;28;20038;-69
2023/07/05 11:52:34;;;;;;;5.05;2.17;;;;;;;;;;5010402;28;20046;-69
2023/07/05 11:55:12;;;;;;;4.47;1.90;;;;;;;;;;5012299;28;20029;-69
2023/07/05 11:57:52;;;;;;;3.35;1.90;;;;;;;;;;5024960;28;20058;-69
2023/07/05 12:00:27;;;;;;;4.65;2.10;;;;;;;;;;5024673;28;20080;-69
2023/07/05 12:03:04;;;;;;;2.83;1.63;;;;;;;;;;5038454;28;20049;-69
2023/07/05 12:05:32;;;;;;;3.83;1.80;;;;;;;;;;5024685;28;20521;-69
2023/07/05 12:08:06;;;;;;;6.60;1.90;;;;;;;;;;5025793;28;20038;-69
2023/07/05 12:10:34;;;;;;;4.10;2.20;;;;;;;;;;5013681;28;20042;-69
2023/07/05 12:13:06;;;;;;;3.90;1.90;;;;;;;;;;5035493;28;20033;-69
2023/07/05 12:15:35;;;;;;;4.07;1.60;;;;;;;;;;5025105;28;20168;-69
2023/07/05 12:18:02;;;;;;;5.55;1.85;;;;;;;;;;5012118;28;20037;-69
2023/07/05 12:20:38;;;;;;;4.25;2.20;;;;;;;;;;5024581;28;20033;-70
2023/07/05 12:23:08;;;;;;;2.72;1.80;;;;;;;;;;5022919;28;20068;-69
2023/07/05 12:25:34;;;;;;;2.50;1.50;;;;;;;;;;5025265;28;20128;-69
2023/07/05 12:28:02;;;;;;;4.13;2.17;;;;;;;;;;5024923;28;20028;-69
2023/07/05 12:30:28;;;;;;;4.72;1.95;;;;;;;;;;5025408;28;20659;-69
2023/07/05 12:32:57;;;;;;;4.95;1.85;;;;;;;;;;5024654;28;20538;-70
2023/07/05 12:35:27;;;;;;;4.32;1.70;;;;;;;;;;5024852;28;20128;-69
2023/07/05 12:37:54;;;;;;;4.72;1.77;;;;;;;;;;5022962;28;20042;-68
2023/07/05 12:40:23;;;;;;;3.30;1.60;;;;;;;;;;5019905;28;20132;-70
2023/07/05 12:43:02;;;;;;;6.00;1.65;;;;;;;;;;5017299;28;20041;-70
2023/07/05 12:45:31;;;;;;;4.10;1.88;;;;;;;;;;5021638;28;20899;-69
2023/07/05 12:48:11;;;;;;;3.78;1.92;;;;;;;;;;5024603;28;20033;-69
2023/07/05 12:50:36;;;;;;;2.58;1.85;;;;;;;;;;5024521;28;20037;-69
2023/07/05 12:53:05;;;;;;;3.05;1.60;;;;;;;;;;5022967;28;20128;-69
2023/07/05 12:55:33;;;;;;;5.35;1.80;;;;;;;;;;5025059;28;20044;-70
2023/07/05 12:58:01;;;;;;;4.97;2.00;;;;;;;;;;5025677;28;20040;-70
2023/07/05 13:00:26;;;;;;;4.07;1.70;;;;;;;;;;5029645;28;20021;-70
2023/07/05 13:02:54;;;;;;;3.55;2.05;;;;;;;;;;5035920;28;20045;-68
2023/07/05 13:05:20;;;;;;;9.20;1.80;;;;;;;;;;5028715;28;20050;-68
2023/07/05 13:07:50;;;;;;;4.63;1.65;;;;;;;;;;5018902;28;20164;-68
2023/07/05 13:10:15;;;;;;;3.08;1.70;;;;;;;;;;5024527;28;20021;-68
2023/07/05 13:12:58;;;;;;;2.88;1.70;;;;;;;;;;5024022;28;20391;-68
2023/07/05 13:15:35;;;;;;;2.67;1.75;;;;;;;;;;5024562;28;20125;-67
2023/07/05 13:18:29;;;;;;;3.33;2.05;;;;;;;;;;5023876;28;20033;-68
2023/07/05 13:21:15;;;;;;;4.32;1.70;;;;;;;;;;5022112;28;20041;-68
2023/07/05 13:23:45;;;;;;;4.90;1.80;;;;;;;;;;5023659;28;20029;-69
2023/07/05 13:26:18;;;;;;;4.45;2.05;;;;;;;;;;5022024;28;20045;-68
2023/07/05 13:28:45;;;;;;;7.55;2.30;;;;;;;;;;5017592;28;20052;-69
2023/07/05 13:31:19;;;;;;;3.88;1.65;;;;;;;;;;5024057;28;20037;-67
2023/07/05 13:33:44;;;;;;;19.75;3.63;;;;;;;;;;5024069;28;20426;-68
2023/07/05 13:36:10;;;;;;;3.35;2.40;;;;;;;;;;5024651;28;20091;-69
2023/07/05 13:38:35;;;;;;;3.97;2.08;;;;;;;;;;5023451;28;20507;-70
2023/07/05 13:41:03;;;;;;;4.65;2.80;;;;;;;;;;5017150;28;20223;-70
2023/07/05 13:43:30;;;;;;;10.38;3.00;;;;;;;;;;5018266;28;20041;-70
2023/07/05 13:45:57;;;;;;;8.18;3.53;;;;;;;;;;5019334;28;20036;-70
2023/07/05 13:48:22;;;;;;;8.23;3.38;;;;;;;;;;5023876;28;20033;-68
2023/07/05 13:50:49;;;;;;;5.43;3.22;;;;;;;;;;5023398;28;20510;-68
2023/07/05 13:53:20;;;;;;;5.57;2.95;;;;;;;;;;5024147;28;20101;-68
2023/07/05 13:55:46;;;;;;;6.30;2.90;;;;;;;;;;5022527;28;20037;-68
2023/07/05 13:58:14;;;;;;;6.10;2.58;;;;;;;;;;5023851;28;20034;-68
2023/07/05 14:00:42;;;;;;;6.45;2.97;;;;;;;;;;5023887;28;20022;-68
2023/07/05 14:03:07;;;;;;;7.30;3.15;;;;;;;;;;5029225;28;20055;-68
2023/07/05 14:05:33;;;;;;;8.25;4.13;;;;;;;;;;5027260;28;20558;-68
2023/07/05 14:08:00;;;;;;;11.95;4.18;;;;;;;;;;5028143;28;20620;-68
2023/07/05 14:10:29;;;;;;;5.65;3.92;;;;;;;;;;5027302;28;20029;-68
2023/07/05 14:12:54;;;;;;;7.03;3.50;;;;;;;;;;5041314;28;20025;-69
2023/07/05 14:15:42;;;;;;;7.00;2.78;;;;;;;;;;5028197;28;20029;-69
2023/07/05 14:18:14;;;;;;;3.38;2.00;;;;;;;;;;5015352;28;20052;-68
2023/07/05 14:20:41;;;;;;;2.33;1.30;;;;;;;;;;5027090;28;20053;-68
2023/07/05 14:23:12;;;;;;;2.05;1.30;;;;;;;;;;5028567;28;20080;-68
2023/07/05 14:25:42;;;;;;;4.43;1.67;;;;;;;;;;5032264;28;20087;-68
2023/07/05 14:28:07;;;;;;;2.58;1.50;;;;;;;;;;5038366;28;20025;-68
2023/07/05 14:30:33;;;;;;;3.13;1.50;;;;;;;;;;5034945;28;20483;-68
2023/07/05 14:32:58;;;;;;;2.38;1.50;;;;;;;;;;5029443;28;20029;-67
2023/07/05 14:35:23;;;;;;;3.08;1.60;;;;;;;;;;5028207;28;20125;-68
2023/07/05 14:37:51;;;;;;;1.92;1.40;;;;;;;;;;5027472;28;20043;-67
2023/07/05 14:40:18;;;;;;;5.10;1.70;;;;;;;;;;5026928;28;20029;-68
2023/07/05 14:42:44;;;;;;;6.78;1.60;;;;;;;;;;5025926;28;20052;-68
2023/07/05 14:45:39;;;;;;;1.88;1.52;;;;;;;;;;5024037;28;20021;-68
2023/07/05 14:48:05;;;;;;;3.85;1.88;;;;;;;;;;5008328;28;20037;-68
2023/07/05 14:50:31;;;;;;;3.95;2.20;;;;;;;;;;5025338;28;20538;-68
2023/07/05 14:52:59;;;;;;;4.60;2.00;;;;;;;;;;5027149;28;20128;-68
2023/07/05 14:55:26;;;;;;;4.47;1.98;;;;;;;;;;5026366;28;20034;-68